createdAt,value
2022-09-12T00:00:00.226Z,16.0
2022-09-12T00:01:02.372Z,16.0
2022-09-12T00:02:00.244Z,15.8
2022-09-12T00:03:00.147Z,15.8
2022-09-12T00:04:00.288Z,15.9
2022-09-12T00:05:00.164Z,15.9
2022-09-12T00:06:00.163Z,15.9
2022-09-12T00:07:00.154Z,15.9
2022-09-12T00:08:00.190Z,15.9
2022-09-12T00:09:01.746Z,15.9
2022-09-12T00:10:00.199Z,15.9
2022-09-12T00:11:03.337Z,15.9
2022-09-12T00:12:00.239Z,15.9
2022-09-12T00:13:00.144Z,15.9
2022-09-12T00:14:00.643Z,15.9
2022-09-12T00:15:00.157Z,15.9
2022-09-12T00:16:00.216Z,15.8
2022-09-12T00:17:00.689Z,15.8
2022-09-12T00:18:00.145Z,15.8
2022-09-12T00:19:00.289Z,15.8
2022-09-12T00:20:00.220Z,15.8
2022-09-12T00:21:01.742Z,15.8
2022-09-12T00:22:00.150Z,15.7
2022-09-12T00:23:00.321Z,15.7
2022-09-12T00:24:00.333Z,15.7
2022-09-12T00:25:00.278Z,15.7
2022-09-12T00:26:02.977Z,15.7
2022-09-12T00:27:00.141Z,15.7
2022-09-12T00:28:00.225Z,15.7
2022-09-12T00:29:00.157Z,15.7
2022-09-12T00:30:00.174Z,15.7
2022-09-12T00:31:02.752Z,15.7
2022-09-12T00:32:00.307Z,15.7
2022-09-12T00:33:00.147Z,15.7
2022-09-12T00:34:00.254Z,15.6
2022-09-12T00:35:00.149Z,15.6
2022-09-12T00:36:03.025Z,15.6
2022-09-12T00:37:00.220Z,15.6
2022-09-12T00:38:00.151Z,15.5
2022-09-12T00:39:00.223Z,15.5
2022-09-12T00:40:00.351Z,15.4
2022-09-12T00:41:00.158Z,15.4
2022-09-12T00:42:00.152Z,15.5
2022-09-12T00:43:00.149Z,15.5
2022-09-12T00:44:10.094Z,15.5
2022-09-12T00:45:00.169Z,15.5
2022-09-12T00:46:03.795Z,15.4
2022-09-12T00:47:04.758Z,15.4
2022-09-12T00:48:01.496Z,15.3
2022-09-12T00:49:10.086Z,15.3
2022-09-12T00:50:04.166Z,15.3
2022-09-12T00:51:00.910Z,15.3
2022-09-12T00:52:04.955Z,15.4
2022-09-12T00:53:03.175Z,15.4
2022-09-12T00:54:02.386Z,15.4
2022-09-12T00:55:00.138Z,15.4
2022-09-12T00:56:00.478Z,15.3
2022-09-12T00:57:03.488Z,15.3
2022-09-12T00:58:02.726Z,15.3
2022-09-12T00:59:03.681Z,15.3
2022-09-12T01:00:07.824Z,15.3
2022-09-12T01:01:00.404Z,15.3
2022-09-12T01:02:00.298Z,15.3
2022-09-12T01:03:03.041Z,15.3
2022-09-12T01:04:00.741Z,15.4
2022-09-12T01:05:00.495Z,15.4
2022-09-12T01:06:10.117Z,15.3
2022-09-12T01:07:00.442Z,15.3
2022-09-12T01:08:01.551Z,15.3
2022-09-12T01:09:00.388Z,15.3
2022-09-12T01:10:00.250Z,15.3
2022-09-12T01:11:00.266Z,15.3
2022-09-12T01:12:00.848Z,15.3
2022-09-12T01:13:00.311Z,15.3
2022-09-12T01:14:00.268Z,15.2
2022-09-12T01:15:00.159Z,15.2
2022-09-12T01:16:01.954Z,15.2
2022-09-12T01:17:00.276Z,15.2
2022-09-12T01:18:08.134Z,15.2
2022-09-12T01:19:10.099Z,15.2
2022-09-12T01:20:01.173Z,15.2
2022-09-12T01:21:00.150Z,15.2
2022-09-12T01:22:10.098Z,15.2
2022-09-12T01:23:10.091Z,15.2
2022-09-12T01:24:00.141Z,15.2
2022-09-12T01:25:00.153Z,15.2
2022-09-12T01:26:00.136Z,15.2
2022-09-12T01:27:10.093Z,15.2
2022-09-12T01:28:10.097Z,15.1
2022-09-12T01:29:10.103Z,15.1
2022-09-12T01:30:00.184Z,15.1
2022-09-12T01:31:04.691Z,15.1
2022-09-12T01:32:07.803Z,15.2
2022-09-12T01:33:01.168Z,15.2
2022-09-12T01:34:07.580Z,15.1
2022-09-12T01:35:03.387Z,15.1
2022-09-12T01:36:10.099Z,15.0
2022-09-12T01:37:01.161Z,15.0
2022-09-12T01:38:10.095Z,15.0
2022-09-12T01:39:02.847Z,15.0
2022-09-12T01:40:06.672Z,15.0
2022-09-12T01:41:08.231Z,15.0
2022-09-12T01:42:10.102Z,15.1
2022-09-12T01:43:10.103Z,15.1
2022-09-12T01:44:08.772Z,15.0
2022-09-12T01:45:10.141Z,15.0
2022-09-12T01:46:01.204Z,14.9
2022-09-12T01:47:10.111Z,14.9
2022-09-12T01:48:04.242Z,15.0
2022-09-12T01:49:10.091Z,15.0
2022-09-12T01:50:10.105Z,14.9
2022-09-12T01:51:00.135Z,14.9
2022-09-12T01:52:10.091Z,14.9
2022-09-12T01:53:03.533Z,14.9
2022-09-12T01:54:05.379Z,14.9
2022-09-12T01:55:10.098Z,14.9
2022-09-12T01:56:05.851Z,14.9
2022-09-12T01:57:02.907Z,14.9
2022-09-12T01:58:06.152Z,14.8
2022-09-12T01:59:02.354Z,14.8
2022-09-12T02:00:03.080Z,14.7
2022-09-12T02:01:00.234Z,14.7
2022-09-12T02:02:05.730Z,14.8
2022-09-12T02:03:03.359Z,14.8
2022-09-12T02:04:00.132Z,14.8
2022-09-12T02:05:05.318Z,14.8
2022-09-12T02:06:03.457Z,14.8
2022-09-12T02:07:05.303Z,14.8
2022-09-12T02:08:09.900Z,14.8
2022-09-12T02:09:04.018Z,14.8
2022-09-12T02:10:04.525Z,14.8
2022-09-12T02:11:06.833Z,14.8
2022-09-12T02:12:00.376Z,14.8
2022-09-12T02:13:02.451Z,14.8
2022-09-12T02:14:05.031Z,14.8
2022-09-12T02:15:02.386Z,14.8
2022-09-12T02:16:04.998Z,14.7
2022-09-12T02:17:04.967Z,14.7
2022-09-12T02:18:02.611Z,14.7
2022-09-12T02:19:06.374Z,14.7
2022-09-12T02:20:02.735Z,14.7
2022-09-12T02:21:00.484Z,14.7
2022-09-12T02:22:01.647Z,14.8
2022-09-12T02:23:02.386Z,14.8
2022-09-12T02:24:01.856Z,14.8
2022-09-12T02:25:01.607Z,14.8
2022-09-12T02:26:03.637Z,14.8
2022-09-12T02:27:08.624Z,14.8
2022-09-12T02:28:03.555Z,14.7
2022-09-12T02:29:00.572Z,14.7
2022-09-12T02:30:00.263Z,14.6
2022-09-12T02:31:06.623Z,14.6
2022-09-12T02:32:04.240Z,14.6
2022-09-12T02:33:05.241Z,14.6
2022-09-12T02:34:08.416Z,14.6
2022-09-12T02:35:03.776Z,14.6
2022-09-12T02:36:10.090Z,14.7
2022-09-12T02:37:01.142Z,14.7
2022-09-12T02:38:05.293Z,14.7
2022-09-12T02:39:00.194Z,14.7
2022-09-12T02:40:00.677Z,14.6
2022-09-12T02:41:00.196Z,14.6
2022-09-12T02:42:01.673Z,14.5
2022-09-12T02:43:01.882Z,14.5
2022-09-12T02:44:00.799Z,14.6
2022-09-12T02:45:00.698Z,14.6
2022-09-12T02:46:00.224Z,14.6
2022-09-12T02:47:03.809Z,14.6
2022-09-12T02:48:10.847Z,14.6
2022-09-12T02:49:00.200Z,14.6
2022-09-12T02:50:00.233Z,14.5
2022-09-12T02:51:00.626Z,14.5
2022-09-12T02:52:01.027Z,14.6
2022-09-12T02:53:00.964Z,14.6
2022-09-12T02:54:00.340Z,14.5
2022-09-12T02:55:00.902Z,14.5
2022-09-12T02:56:00.303Z,14.4
2022-09-12T02:57:00.153Z,14.4
2022-09-12T02:58:01.833Z,14.5
2022-09-12T02:59:05.629Z,14.5
2022-09-12T03:00:00.527Z,14.5
2022-09-12T03:01:10.090Z,14.5
2022-09-12T03:02:01.188Z,14.6
2022-09-12T03:03:10.082Z,14.6
2022-09-12T03:04:10.088Z,14.5
2022-09-12T03:05:10.089Z,14.5
2022-09-12T03:06:01.495Z,14.5
2022-09-12T03:07:10.090Z,14.5
2022-09-12T03:08:01.137Z,14.5
2022-09-12T03:09:00.132Z,14.5
2022-09-12T03:10:10.096Z,14.5
2022-09-12T03:11:10.090Z,14.5
2022-09-12T03:12:01.136Z,14.4
2022-09-12T03:13:10.089Z,14.4
2022-09-12T03:14:10.086Z,14.4
2022-09-12T03:15:10.095Z,14.4
2022-09-12T03:16:10.147Z,14.3
2022-09-12T03:17:03.435Z,14.3
2022-09-12T03:18:10.086Z,14.3
2022-09-12T03:19:00.132Z,14.3
2022-09-12T03:20:10.103Z,14.3
2022-09-12T03:21:00.261Z,14.3
2022-09-12T03:22:10.089Z,14.2
2022-09-12T03:23:03.234Z,14.2
2022-09-12T03:24:07.516Z,14.3
2022-09-12T03:25:10.089Z,14.3
2022-09-12T03:26:04.840Z,14.3
2022-09-12T03:27:03.398Z,14.3
2022-09-12T03:28:04.043Z,14.2
2022-09-12T03:29:01.611Z,14.2
2022-09-12T03:30:00.609Z,14.2
2022-09-12T03:31:10.092Z,14.2
2022-09-12T03:32:00.226Z,14.2
2022-09-12T03:33:00.151Z,14.2
2022-09-12T03:34:00.155Z,14.3
2022-09-12T03:35:00.163Z,14.3
2022-09-12T03:36:00.226Z,14.2
2022-09-12T03:37:00.169Z,14.2
2022-09-12T03:38:00.161Z,14.2
2022-09-12T03:39:00.149Z,14.2
2022-09-12T03:40:00.278Z,14.3
2022-09-12T03:41:00.168Z,14.3
2022-09-12T03:42:00.145Z,14.2
2022-09-12T03:43:00.153Z,14.2
2022-09-12T03:44:00.210Z,14.2
2022-09-12T03:45:00.849Z,14.2
2022-09-12T03:46:00.330Z,14.2
2022-09-12T03:47:00.153Z,14.2
2022-09-12T03:48:00.303Z,14.2
2022-09-12T03:49:00.156Z,14.2
2022-09-12T03:50:00.383Z,14.2
2022-09-12T03:51:01.240Z,14.2
2022-09-12T03:52:00.207Z,14.2
2022-09-12T03:53:01.126Z,14.2
2022-09-12T03:54:00.148Z,14.3
2022-09-12T03:55:00.147Z,14.3
2022-09-12T03:56:04.243Z,14.2
2022-09-12T03:57:00.155Z,14.2
2022-09-12T03:58:00.143Z,14.2
2022-09-12T03:59:00.389Z,14.2
2022-09-12T04:00:00.163Z,14.3
2022-09-12T04:01:00.183Z,14.3
2022-09-12T04:02:00.329Z,14.2
2022-09-12T04:03:00.155Z,14.2
2022-09-12T04:04:00.513Z,14.2
2022-09-12T04:05:00.198Z,14.2
2022-09-12T04:06:00.148Z,14.3
2022-09-12T04:07:00.157Z,14.3
2022-09-12T04:08:00.262Z,14.2
2022-09-12T04:09:00.158Z,14.2
2022-09-12T04:10:00.210Z,14.1
2022-09-12T04:11:02.166Z,14.1
2022-09-12T04:12:00.244Z,14.2
2022-09-12T04:13:00.155Z,14.2
2022-09-12T04:14:00.314Z,14.2
2022-09-12T04:15:00.170Z,14.2
2022-09-12T04:16:00.380Z,14.3
2022-09-12T04:17:00.240Z,14.3
2022-09-12T04:18:05.013Z,14.3
2022-09-12T04:19:00.211Z,14.3
2022-09-12T04:20:00.238Z,14.2
2022-09-12T04:21:08.955Z,14.2
2022-09-12T04:22:00.153Z,14.2
2022-09-12T04:23:00.159Z,14.2
2022-09-12T04:24:00.258Z,14.1
2022-09-12T04:25:00.186Z,14.1
2022-09-12T04:26:00.702Z,14.2
2022-09-12T04:27:00.866Z,14.2
2022-09-12T04:28:00.247Z,14.2
2022-09-12T04:29:00.164Z,14.2
2022-09-12T04:30:00.575Z,14.2
2022-09-12T04:31:01.577Z,14.2
2022-09-12T04:32:00.263Z,14.2
2022-09-12T04:33:00.151Z,14.2
2022-09-12T04:34:00.246Z,14.3
2022-09-12T04:35:00.150Z,14.3
2022-09-12T04:36:02.757Z,14.3
2022-09-12T04:37:00.165Z,14.3
2022-09-12T04:38:00.147Z,14.2
2022-09-12T04:39:00.847Z,14.2
2022-09-12T04:40:00.345Z,14.2
2022-09-12T04:41:00.142Z,14.2
2022-09-12T04:42:00.153Z,14.2
2022-09-12T04:43:00.171Z,14.2
2022-09-12T04:44:01.148Z,14.2
2022-09-12T04:45:00.148Z,14.2
2022-09-12T04:46:08.773Z,14.2
2022-09-12T04:47:00.210Z,14.2
2022-09-12T04:48:00.257Z,14.2
2022-09-12T04:49:00.218Z,14.2
2022-09-12T04:50:00.144Z,14.2
2022-09-12T04:51:08.756Z,14.2
2022-09-12T04:52:00.236Z,14.2
2022-09-12T04:53:00.157Z,14.2
2022-09-12T04:54:02.932Z,14.2
2022-09-12T04:57:00.161Z,14.2
2022-09-12T04:58:01.002Z,14.1
2022-09-12T04:59:00.324Z,14.1
2022-09-12T05:00:05.131Z,14.2
2022-09-12T05:01:08.312Z,14.2
2022-09-12T05:02:00.176Z,14.4
2022-09-12T05:03:00.151Z,14.4
2022-09-12T05:04:00.279Z,14.2
2022-09-12T05:05:00.143Z,14.2
2022-09-12T05:06:01.732Z,14.3
2022-09-12T05:07:00.318Z,14.3
2022-09-12T05:08:00.240Z,14.3
2022-09-12T05:09:00.500Z,14.3
2022-09-12T05:10:00.269Z,14.4
2022-09-12T05:11:02.442Z,14.4
2022-09-12T05:12:04.338Z,14.3
2022-09-12T05:13:00.145Z,14.3
2022-09-12T05:15:00.254Z,14.5
2022-09-12T05:16:01.271Z,14.4
2022-09-12T05:17:00.239Z,14.4
2022-09-12T05:18:00.145Z,14.3
2022-09-12T05:19:00.159Z,14.3
2022-09-12T05:20:00.211Z,14.5
2022-09-12T05:21:00.793Z,14.5
2022-09-12T05:22:00.217Z,14.5
2022-09-12T05:23:00.154Z,14.5
2022-09-12T05:24:00.222Z,14.6
2022-09-12T05:25:00.145Z,14.6
2022-09-12T05:26:01.061Z,14.5
2022-09-12T05:27:00.336Z,14.5
2022-09-12T05:28:00.222Z,14.5
2022-09-12T05:29:00.165Z,14.5
2022-09-12T05:30:00.179Z,14.5
2022-09-12T05:31:02.677Z,14.5
2022-09-12T05:32:00.379Z,14.6
2022-09-12T05:33:00.143Z,14.6
2022-09-12T05:34:00.181Z,14.3
2022-09-12T05:35:00.163Z,14.3
2022-09-12T05:36:00.923Z,14.4
2022-09-12T05:37:00.154Z,14.4
2022-09-12T05:38:00.143Z,14.4
2022-09-12T05:39:00.453Z,14.4
2022-09-12T05:40:00.306Z,14.4
2022-09-12T05:41:01.777Z,14.4
2022-09-12T05:42:00.142Z,14.4
2022-09-12T05:43:00.148Z,14.4
2022-09-12T05:44:01.305Z,14.4
2022-09-12T05:45:00.222Z,14.4
2022-09-12T05:46:04.557Z,14.6
2022-09-12T05:47:00.160Z,14.6
2022-09-12T05:48:00.213Z,14.6
2022-09-12T05:49:02.117Z,14.6
2022-09-12T05:50:00.158Z,14.6
2022-09-12T05:51:01.226Z,14.6
2022-09-12T05:52:00.234Z,14.6
2022-09-12T05:53:00.199Z,14.6
2022-09-12T05:54:01.221Z,14.7
2022-09-12T05:55:00.154Z,14.7
2022-09-12T05:56:02.665Z,14.6
2022-09-12T05:57:00.170Z,14.6
2022-09-12T05:58:00.153Z,14.6
2022-09-12T05:59:01.732Z,14.6
2022-09-12T06:00:00.245Z,14.7
2022-09-12T06:01:00.816Z,14.7
2022-09-12T06:02:00.217Z,14.8
2022-09-12T06:03:00.163Z,14.8
2022-09-12T06:04:02.065Z,14.7
2022-09-12T06:05:00.164Z,14.7
2022-09-12T06:06:01.125Z,14.8
2022-09-12T06:07:00.146Z,14.8
2022-09-12T06:08:00.248Z,14.8
2022-09-12T06:09:01.303Z,14.8
2022-09-12T06:10:00.308Z,14.8
2022-09-12T06:11:02.358Z,14.8
2022-09-12T06:12:00.225Z,14.9
2022-09-12T06:13:00.142Z,14.9
2022-09-12T06:14:00.294Z,14.8
2022-09-12T06:15:00.144Z,14.8
2022-09-12T06:16:02.582Z,14.8
2022-09-12T06:17:00.188Z,14.8
2022-09-12T06:18:00.143Z,14.8
2022-09-12T06:19:01.668Z,14.8
2022-09-12T06:20:00.236Z,14.7
2022-09-12T06:21:01.987Z,14.7
2022-09-12T06:22:00.155Z,14.7
2022-09-12T06:23:00.148Z,14.7
2022-09-12T06:24:00.557Z,14.8
2022-09-12T06:25:00.150Z,14.8
2022-09-12T06:26:00.344Z,14.8
2022-09-12T06:27:00.147Z,14.8
2022-09-12T06:28:00.197Z,14.8
2022-09-12T06:29:00.511Z,14.8
2022-09-12T06:30:00.173Z,14.9
2022-09-12T06:31:01.203Z,14.9
2022-09-12T06:32:00.216Z,14.9
2022-09-12T06:33:00.143Z,14.9
2022-09-12T06:34:01.144Z,14.9
2022-09-12T06:35:00.194Z,14.9
2022-09-12T06:36:03.569Z,14.8
2022-09-12T06:37:00.158Z,14.8
2022-09-12T06:38:00.174Z,14.8
2022-09-12T06:39:01.795Z,14.8
2022-09-12T06:40:01.702Z,14.8
2022-09-12T06:41:02.512Z,14.8
2022-09-12T06:42:00.149Z,14.8
2022-09-12T06:43:00.219Z,14.8
2022-09-12T06:44:00.654Z,14.8
2022-09-12T06:45:00.164Z,14.8
2022-09-12T06:46:00.409Z,14.8
2022-09-12T06:47:00.156Z,14.8
2022-09-12T06:48:00.232Z,14.6
2022-09-12T06:49:00.169Z,14.6
2022-09-12T06:50:00.178Z,14.7
2022-09-12T06:51:01.747Z,14.7
2022-09-12T06:52:00.246Z,14.7
2022-09-12T06:53:00.172Z,14.7
2022-09-12T06:54:00.161Z,14.7
2022-09-12T06:55:00.155Z,14.7
2022-09-12T06:56:01.138Z,14.8
2022-09-12T06:57:00.158Z,14.8
2022-09-12T06:58:00.173Z,14.7
2022-09-12T06:59:00.161Z,14.7
2022-09-12T07:00:00.227Z,14.6
2022-09-12T07:01:02.260Z,14.6
2022-09-12T07:02:00.187Z,14.7
2022-09-12T07:03:00.135Z,14.7
2022-09-12T07:04:00.978Z,14.7
2022-09-12T07:05:00.192Z,14.7
2022-09-12T07:06:02.118Z,14.7
2022-09-12T07:07:00.148Z,14.7
2022-09-12T07:08:00.158Z,14.8
2022-09-12T07:09:01.421Z,14.8
2022-09-12T07:10:00.195Z,14.8
2022-09-12T07:11:07.520Z,14.8
2022-09-12T07:12:00.208Z,15.0
2022-09-12T07:13:00.147Z,15.0
2022-09-12T07:14:01.140Z,15.0
2022-09-12T07:15:00.154Z,15.0
2022-09-12T07:17:00.222Z,15.1
2022-09-12T07:18:00.148Z,15.2
2022-09-12T07:19:01.100Z,15.2
2022-09-12T07:20:00.344Z,15.2
2022-09-12T07:21:00.572Z,15.2
2022-09-12T07:22:00.372Z,15.3
2022-09-12T07:23:00.144Z,15.3
2022-09-12T07:24:00.207Z,15.4
2022-09-12T07:25:00.154Z,15.4
2022-09-12T07:26:00.659Z,15.5
2022-09-12T07:27:00.152Z,15.5
2022-09-12T07:28:00.216Z,15.6
2022-09-12T07:29:25.260Z,15.6
2022-09-12T07:30:00.146Z,15.5
2022-09-12T07:31:10.171Z,15.5
2022-09-12T07:32:00.190Z,15.5
2022-09-12T07:33:00.151Z,15.5
2022-09-12T07:34:03.560Z,15.7
2022-09-12T07:35:00.155Z,15.7
2022-09-12T07:36:00.841Z,15.6
2022-09-12T07:37:00.149Z,15.6
2022-09-12T07:38:00.154Z,15.6
2022-09-12T07:39:00.148Z,15.6
2022-09-12T07:40:00.358Z,15.7
2022-09-12T07:41:00.144Z,15.7
2022-09-12T07:42:00.156Z,15.8
2022-09-12T07:43:00.154Z,15.8
2022-09-12T07:44:01.006Z,15.8
2022-09-12T07:45:00.160Z,15.8
2022-09-12T07:46:00.245Z,15.9
2022-09-12T07:47:00.185Z,15.9
2022-09-12T07:48:00.220Z,16.0
2022-09-12T07:49:00.678Z,16.0
2022-09-12T07:50:00.166Z,16.0
2022-09-12T07:51:01.210Z,16.0
2022-09-12T07:52:00.236Z,16.1
2022-09-12T07:53:00.149Z,16.1
2022-09-12T07:54:00.157Z,16.2
2022-09-12T07:55:00.164Z,16.2
2022-09-12T07:56:00.425Z,16.2
2022-09-12T07:57:00.173Z,16.2
2022-09-12T07:58:00.186Z,16.3
2022-09-12T07:59:00.244Z,16.3
2022-09-12T08:00:00.899Z,16.4
2022-09-12T08:01:01.305Z,16.4
2022-09-12T08:02:00.182Z,16.4
2022-09-12T08:03:00.431Z,16.4
2022-09-12T08:04:00.236Z,16.5
2022-09-12T08:05:00.157Z,16.5
2022-09-12T08:06:02.209Z,16.5
2022-09-12T08:07:00.151Z,16.5
2022-09-12T08:08:00.176Z,16.7
2022-09-12T08:09:00.245Z,16.7
2022-09-12T08:10:00.368Z,16.8
2022-09-12T08:11:00.886Z,16.8
2022-09-12T08:12:00.341Z,16.8
2022-09-12T08:13:00.169Z,16.8
2022-09-12T08:14:00.151Z,17.0
2022-09-12T08:15:00.190Z,17.0
2022-09-12T08:16:01.097Z,17.0
2022-09-12T08:17:00.146Z,17.0
2022-09-12T08:18:00.143Z,17.2
2022-09-12T08:19:01.184Z,17.2
2022-09-12T08:20:00.250Z,17.1
2022-09-12T08:21:02.679Z,17.1
2022-09-12T08:22:00.146Z,17.2
2022-09-12T08:23:00.148Z,17.2
2022-09-12T08:24:01.736Z,17.3
2022-09-12T08:25:00.141Z,17.3
2022-09-12T08:26:05.288Z,17.4
2022-09-12T08:27:00.151Z,17.4
2022-09-12T08:28:00.237Z,17.4
2022-09-12T08:29:00.376Z,17.4
2022-09-12T08:30:00.168Z,17.6
2022-09-12T08:31:01.108Z,17.6
2022-09-12T08:32:00.187Z,17.6
2022-09-12T08:33:00.148Z,17.6
2022-09-12T08:34:00.152Z,17.7
2022-09-12T08:35:00.192Z,17.7
2022-09-12T08:36:02.553Z,17.7
2022-09-12T08:37:00.146Z,17.7
2022-09-12T08:38:00.146Z,17.8
2022-09-12T08:39:01.753Z,17.8
2022-09-12T08:40:00.332Z,17.7
2022-09-12T08:41:08.754Z,17.7
2022-09-12T08:42:01.291Z,17.9
2022-09-12T08:43:05.108Z,17.9
2022-09-12T08:44:07.529Z,18.0
2022-09-12T08:45:08.042Z,18.0
2022-09-12T08:46:10.279Z,18.0
2022-09-12T08:47:10.131Z,18.0
2022-09-12T08:48:01.662Z,18.0
2022-09-12T08:49:01.462Z,18.0
2022-09-12T08:50:07.475Z,18.1
2022-09-12T08:51:00.731Z,18.1
2022-09-12T08:52:04.776Z,18.2
2022-09-12T08:53:03.543Z,18.2
2022-09-12T08:54:01.086Z,18.2
2022-09-12T08:55:01.610Z,18.2
2022-09-12T08:56:01.076Z,18.2
2022-09-12T08:57:02.567Z,18.2
2022-09-12T08:58:01.109Z,18.4
2022-09-12T08:59:01.119Z,18.4
2022-09-12T09:00:01.288Z,18.5
2022-09-12T09:01:06.729Z,18.5
2022-09-12T09:02:01.349Z,18.6
2022-09-12T09:03:01.141Z,18.6
2022-09-12T09:04:09.506Z,18.7
2022-09-12T09:05:06.599Z,18.7
2022-09-12T09:06:10.092Z,18.9
2022-09-12T09:10:10.145Z,19.0
2022-09-12T09:11:03.385Z,19.0
2022-09-12T09:12:00.130Z,19.1
2022-09-12T09:13:01.139Z,19.1
2022-09-12T09:14:10.099Z,19.1
2022-09-12T09:15:05.346Z,19.1
2022-09-12T09:16:06.073Z,19.1
2022-09-12T09:17:01.555Z,19.1
2022-09-12T09:18:02.068Z,19.2
2022-09-12T09:19:03.426Z,19.2
2022-09-12T09:20:04.618Z,19.2
2022-09-12T09:21:02.604Z,19.2
2022-09-12T09:22:03.580Z,19.3
2022-09-12T09:23:06.392Z,19.3
2022-09-12T09:24:03.690Z,19.3
2022-09-12T09:25:03.891Z,19.3
2022-09-12T09:26:10.095Z,19.4
2022-09-12T09:27:02.677Z,19.4
2022-09-12T09:28:03.808Z,19.5
2022-09-12T09:29:10.095Z,19.5
2022-09-12T09:30:01.026Z,19.7
2022-09-12T09:31:00.816Z,19.7
2022-09-12T09:32:02.549Z,19.6
2022-09-12T09:33:01.765Z,19.6
2022-09-12T09:34:00.378Z,19.7
2022-09-12T09:35:01.757Z,19.7
2022-09-12T09:36:07.120Z,19.7
2022-09-12T09:37:04.654Z,19.7
2022-09-12T09:38:05.561Z,19.9
2022-09-12T09:39:00.126Z,19.9
2022-09-12T09:40:01.272Z,19.9
2022-09-12T09:41:09.433Z,19.9
2022-09-12T09:42:07.611Z,19.9
2022-09-12T09:43:05.129Z,19.9
2022-09-12T09:44:00.520Z,20.0
2022-09-12T09:45:03.500Z,20.0
2022-09-12T09:46:00.284Z,20.0
2022-09-12T09:47:00.374Z,20.0
2022-09-12T09:48:09.892Z,20.2
2022-09-12T09:49:03.813Z,20.2
2022-09-12T09:50:00.166Z,20.4
2022-09-12T09:51:01.942Z,20.4
2022-09-12T09:52:00.746Z,20.4
2022-09-12T09:53:01.768Z,20.4
2022-09-12T09:54:02.394Z,20.4
2022-09-12T09:55:00.340Z,20.4
2022-09-12T09:56:01.957Z,20.5
2022-09-12T09:57:00.193Z,20.5
2022-09-12T09:58:00.160Z,20.6
2022-09-12T09:59:10.089Z,20.6
2022-09-12T10:00:10.106Z,20.5
2022-09-12T10:01:01.427Z,20.5
2022-09-12T10:02:02.831Z,20.5
2022-09-12T10:03:02.045Z,20.5
2022-09-12T10:04:00.182Z,20.6
2022-09-12T10:05:00.227Z,20.6
2022-09-12T10:06:05.449Z,20.6
2022-09-12T10:07:01.305Z,20.6
2022-09-12T10:08:00.361Z,20.7
2022-09-12T10:09:10.092Z,20.7
2022-09-12T10:10:10.112Z,20.9
2022-09-12T10:11:02.486Z,20.9
2022-09-12T10:12:10.093Z,20.9
2022-09-12T10:13:08.839Z,20.9
2022-09-12T10:14:00.158Z,20.8
2022-09-12T10:15:01.243Z,20.8
2022-09-12T10:17:01.413Z,20.9
2022-09-12T10:18:00.325Z,21.1
2022-09-12T10:19:01.222Z,21.1
2022-09-12T10:20:20.017Z,21.0
2022-09-12T10:21:00.546Z,21.0
2022-09-12T10:22:00.696Z,21.1
2022-09-12T10:23:10.102Z,21.1
2022-09-12T10:24:10.084Z,21.4
2022-09-12T10:25:00.344Z,21.4
2022-09-12T10:26:01.471Z,21.4
2022-09-12T10:27:10.097Z,21.4
2022-09-12T10:28:10.097Z,21.3
2022-09-12T10:29:03.378Z,21.3
2022-09-12T10:30:03.358Z,21.3
2022-09-12T10:31:00.643Z,21.3
2022-09-12T10:32:02.052Z,21.3
2022-09-12T10:33:05.766Z,21.3
2022-09-12T10:34:00.351Z,21.2
2022-09-12T10:35:01.641Z,21.2
2022-09-12T10:36:00.864Z,21.3
2022-09-12T10:37:01.864Z,21.3
2022-09-12T10:38:01.775Z,21.3
2022-09-12T10:39:00.841Z,21.3
2022-09-12T10:40:01.281Z,21.4
2022-09-12T10:41:05.647Z,21.4
2022-09-12T10:42:00.498Z,21.5
2022-09-12T10:43:00.792Z,21.5
2022-09-12T10:44:10.094Z,21.7
2022-09-12T10:45:00.420Z,21.7
2022-09-12T10:46:10.127Z,21.8
2022-09-12T10:47:10.091Z,21.8
2022-09-12T10:48:06.888Z,21.7
2022-09-12T10:49:10.099Z,21.7
2022-09-12T10:50:17.530Z,21.7
2022-09-12T10:51:00.498Z,21.7
2022-09-12T10:52:10.086Z,21.7
2022-09-12T10:53:10.091Z,21.7
2022-09-12T10:54:01.653Z,21.8
2022-09-12T10:55:00.176Z,21.8
2022-09-12T10:56:10.099Z,22.0
2022-09-12T10:57:00.130Z,22.0
2022-09-12T10:58:07.636Z,22.1
2022-09-12T10:59:10.097Z,22.1
2022-09-12T11:00:10.026Z,22.1
2022-09-12T11:01:08.826Z,22.1
2022-09-12T11:02:10.152Z,22.0
2022-09-12T11:03:04.395Z,22.0
2022-09-12T11:04:10.087Z,22.0
2022-09-12T11:09:05.594Z,22.0
2022-09-12T11:10:10.101Z,22.3
2022-09-12T11:11:06.688Z,22.2
2022-09-12T11:12:03.536Z,22.2
2022-09-12T11:13:10.087Z,22.4
2022-09-12T11:14:03.402Z,22.4
2022-09-12T11:15:00.133Z,22.4
2022-09-12T11:16:10.172Z,22.4
2022-09-12T11:17:03.398Z,22.4
2022-09-12T11:18:07.574Z,22.5
2022-09-12T11:19:10.105Z,22.5
2022-09-12T11:20:00.177Z,22.5
2022-09-12T11:21:00.131Z,22.5
2022-09-12T11:22:10.103Z,22.5
2022-09-12T11:23:10.091Z,22.5
2022-09-12T11:24:03.435Z,22.5
2022-09-12T11:25:10.097Z,22.7
2022-09-12T11:26:01.144Z,22.7
2022-09-12T11:27:10.093Z,22.6
2022-09-12T11:28:03.441Z,22.6
2022-09-12T11:29:10.088Z,22.6
2022-09-12T11:30:03.591Z,22.6
2022-09-12T11:32:10.097Z,22.6
2022-09-12T11:33:00.278Z,22.6
2022-09-12T11:34:04.334Z,22.8
2022-09-12T11:35:00.138Z,22.8
2022-09-12T11:36:01.481Z,22.7
2022-09-12T11:37:11.435Z,22.8
2022-09-12T11:38:01.147Z,22.8
2022-09-12T11:39:05.925Z,22.8
2022-09-12T11:40:09.358Z,22.7
2022-09-12T11:41:02.649Z,22.7
2022-09-12T11:42:02.228Z,22.8
2022-09-12T11:43:04.464Z,22.8
2022-09-12T11:44:10.086Z,22.8
2022-09-12T11:45:02.872Z,22.8
2022-09-12T11:46:05.766Z,22.8
2022-09-12T11:47:03.470Z,22.8
2022-09-12T11:48:04.447Z,22.8
2022-09-12T11:49:03.692Z,22.8
2022-09-12T11:50:02.456Z,22.8
2022-09-12T11:51:01.776Z,22.8
2022-09-12T11:52:06.218Z,22.9
2022-09-12T11:53:10.092Z,23.0
2022-09-12T11:54:03.801Z,23.0
2022-09-12T11:55:10.098Z,23.0
2022-09-12T11:56:05.045Z,23.0
2022-09-12T11:57:07.435Z,23.1
2022-09-12T11:58:00.150Z,23.1
2022-09-12T11:59:03.435Z,23.1
2022-09-12T12:00:04.168Z,23.1
2022-09-12T12:01:10.094Z,23.1
2022-09-12T12:02:02.400Z,23.1
2022-09-12T12:03:05.474Z,23.1
2022-09-12T12:04:02.503Z,23.1
2022-09-12T12:05:10.103Z,23.1
2022-09-12T12:06:03.354Z,23.1
2022-09-12T12:07:03.616Z,23.1
2022-09-12T12:08:01.685Z,23.2
2022-09-12T12:09:03.036Z,23.2
2022-09-12T12:10:00.192Z,23.3
2022-09-12T12:11:01.598Z,23.3
2022-09-12T12:12:02.324Z,23.4
2022-09-12T12:13:02.047Z,23.4
2022-09-12T12:14:00.142Z,23.6
2022-09-12T12:15:00.367Z,23.6
2022-09-12T12:16:10.182Z,23.6
2022-09-12T12:17:00.228Z,23.6
2022-09-12T12:18:01.614Z,23.4
2022-09-12T12:19:01.690Z,23.4
2022-09-12T12:20:06.417Z,23.4
2022-09-12T12:21:10.095Z,23.5
2022-09-12T12:22:06.387Z,23.5
2022-09-12T12:23:00.176Z,23.5
2022-09-12T12:24:03.100Z,23.5
2022-09-12T12:25:04.185Z,23.5
2022-09-12T12:26:01.243Z,23.7
2022-09-12T12:27:00.954Z,23.7
2022-09-12T12:28:00.260Z,23.8
2022-09-12T12:29:00.164Z,23.8
2022-09-12T12:30:00.176Z,23.8
2022-09-12T12:31:00.782Z,23.8
2022-09-12T12:32:00.179Z,24.0
2022-09-12T12:33:00.992Z,24.0
2022-09-12T12:34:01.519Z,23.9
2022-09-12T12:35:01.221Z,23.9
2022-09-12T12:36:00.129Z,24.0
2022-09-12T12:37:10.091Z,24.1
2022-09-12T12:38:00.670Z,24.1
2022-09-12T12:39:10.089Z,24.1
2022-09-12T12:40:09.105Z,24.1
2022-09-12T12:41:10.089Z,24.1
2022-09-12T12:42:00.594Z,24.1
2022-09-12T12:43:02.438Z,24.1
2022-09-12T12:44:10.091Z,24.1
2022-09-12T12:45:00.144Z,24.1
2022-09-12T12:46:02.292Z,24.1
2022-09-12T12:47:10.088Z,24.1
2022-09-12T12:48:08.828Z,24.1
2022-09-12T12:49:09.811Z,24.2
2022-09-12T12:50:03.239Z,24.2
2022-09-12T12:51:10.092Z,24.2
2022-09-12T12:52:00.349Z,24.2
2022-09-12T12:53:02.099Z,24.2
2022-09-12T12:54:01.738Z,24.0
2022-09-12T12:55:01.785Z,24.0
2022-09-12T12:56:00.222Z,24.1
2022-09-12T12:57:05.136Z,24.1
2022-09-12T12:58:01.347Z,24.1
2022-09-12T12:59:02.920Z,24.1
2022-09-12T13:00:03.676Z,24.2
2022-09-12T13:01:01.136Z,24.2
2022-09-12T13:02:00.337Z,24.2
2022-09-12T13:03:05.536Z,24.2
2022-09-12T13:04:00.141Z,24.2
2022-09-12T13:05:01.936Z,24.2
2022-09-12T13:06:02.402Z,24.2
2022-09-12T13:07:07.903Z,24.2
2022-09-12T13:08:03.951Z,24.3
2022-09-12T13:09:07.420Z,24.3
2022-09-12T13:10:01.013Z,24.3
2022-09-12T13:11:02.953Z,24.3
2022-09-12T13:12:02.539Z,24.4
2022-09-12T13:13:01.573Z,24.4
2022-09-12T13:14:02.507Z,24.6
2022-09-12T13:15:01.486Z,24.6
2022-09-12T13:16:00.355Z,24.3
2022-09-12T13:17:01.522Z,24.3
2022-09-12T13:18:01.782Z,24.2
2022-09-12T13:19:02.594Z,24.2
2022-09-12T13:20:26.012Z,24.4
2022-09-12T13:21:10.100Z,24.5
2022-09-12T13:22:01.888Z,24.5
2022-09-12T13:23:00.183Z,24.5
2022-09-12T13:24:02.835Z,24.6
2022-09-12T13:25:00.190Z,24.6
2022-09-12T13:26:00.713Z,24.5
2022-09-12T13:27:00.147Z,24.5
2022-09-12T13:28:00.129Z,24.5
2022-09-12T13:29:08.255Z,24.6
2022-09-12T13:30:08.192Z,24.6
2022-09-12T13:31:00.170Z,24.6